sensor_id;sensor_type;location;lat;lon;timestamp;temperature;humidity
12843;DHT22;35724;49.324;-123.118;2024-02-04T00:04:04;10.60;99.90
12843;DHT22;35724;49.324;-123.118;2024-02-04T00:14:12;10.40;99.90
12843;DHT22;35724;49.324;-123.118;2024-02-04T00:24:21;10.10;99.90
12843;DHT22;35724;49.324;-123.118;2024-02-04T00:34:29;9.80;99.90
12843;DHT22;35724;49.324;-123.118;2024-02-04T00:44:40;9.50;99.90
12843;DHT22;35724;49.324;-123.118;2024-02-04T00:54:48;9.20;99.90
12843;DHT22;35724;49.324;-123.118;2024-02-04T01:04:56;9.00;99.90
12843;DHT22;35724;49.324;-123.118;2024-02-04T01:15:05;8.70;99.90
12843;DHT22;35724;49.324;-123.118;2024-02-04T01:25:14;8.50;99.90
12843;DHT22;35724;49.324;-123.118;2024-02-04T01:35:21;8.20;99.90
12843;DHT22;35724;49.324;-123.118;2024-02-04T01:45:30;8.00;99.90
12843;DHT22;35724;49.324;-123.118;2024-02-04T01:55:37;7.80;99.90
12843;DHT22;35724;49.324;-123.118;2024-02-04T02:05:47;7.50;99.90
12843;DHT22;35724;49.324;-123.118;2024-02-04T02:15:58;7.40;99.90
12843;DHT22;35724;49.324;-123.118;2024-02-04T02:26:11;7.30;99.90
12843;DHT22;35724;49.324;-123.118;2024-02-04T02:36:21;7.00;99.90
12843;DHT22;35724;49.324;-123.118;2024-02-04T02:46:31;6.80;99.90
12843;DHT22;35724;49.324;-123.118;2024-02-04T02:56:38;6.60;99.90
12843;DHT22;35724;49.324;-123.118;2024-02-04T03:06:48;6.50;99.90
12843;DHT22;35724;49.324;-123.118;2024-02-04T03:16:56;6.50;99.90
12843;DHT22;35724;49.324;-123.118;2024-02-04T03:27:05;6.30;99.90
12843;DHT22;35724;49.324;-123.118;2024-02-04T03:37:12;6.40;99.90
12843;DHT22;35724;49.324;-123.118;2024-02-04T03:47:21;6.20;99.90
12843;DHT22;35724;49.324;-123.118;2024-02-04T03:57:29;6.10;99.90
12843;DHT22;35724;49.324;-123.118;2024-02-04T04:07:39;6.00;99.90
12843;DHT22;35724;49.324;-123.118;2024-02-04T04:17:47;5.80;99.90
12843;DHT22;35724;49.324;-123.118;2024-02-04T04:27:58;5.70;99.90
12843;DHT22;35724;49.324;-123.118;2024-02-04T04:38:05;5.60;99.90
12843;DHT22;35724;49.324;-123.118;2024-02-04T04:48:14;5.60;99.90
12843;DHT22;35724;49.324;-123.118;2024-02-04T04:58:21;6.00;99.90
12843;DHT22;35724;49.324;-123.118;2024-02-04T05:08:30;6.00;99.90
12843;DHT22;35724;49.324;-123.118;2024-02-04T05:18:38;5.60;99.90
12843;DHT22;35724;49.324;-123.118;2024-02-04T05:28:48;5.40;99.90
12843;DHT22;35724;49.324;-123.118;2024-02-04T05:38:55;5.30;99.90
12843;DHT22;35724;49.324;-123.118;2024-02-04T05:49:04;5.20;99.90
12843;DHT22;35724;49.324;-123.118;2024-02-04T05:59:12;5.10;99.90
12843;DHT22;35724;49.324;-123.118;2024-02-04T06:09:22;5.00;99.90
12843;DHT22;35724;49.324;-123.118;2024-02-04T06:19:31;4.90;99.90
12843;DHT22;35724;49.324;-123.118;2024-02-04T06:29:39;4.80;99.90
12843;DHT22;35724;49.324;-123.118;2024-02-04T06:39:46;4.80;99.90
12843;DHT22;35724;49.324;-123.118;2024-02-04T06:49:57;4.90;99.90
12843;DHT22;35724;49.324;-123.118;2024-02-04T07:00:06;4.90;99.90
12843;DHT22;35724;49.324;-123.118;2024-02-04T07:10:14;5.20;99.90
12843;DHT22;35724;49.324;-123.118;2024-02-04T07:20:22;5.50;99.90
12843;DHT22;35724;49.324;-123.118;2024-02-04T07:30:31;5.80;99.90
12843;DHT22;35724;49.324;-123.118;2024-02-04T07:40:38;6.10;99.90
12843;DHT22;35724;49.324;-123.118;2024-02-04T07:50:47;6.20;99.90
12843;DHT22;35724;49.324;-123.118;2024-02-04T08:00:54;6.10;99.90
12843;DHT22;35724;49.324;-123.118;2024-02-04T08:11:03;6.10;99.90
12843;DHT22;35724;49.324;-123.118;2024-02-04T08:21:10;6.40;99.90
12843;DHT22;35724;49.324;-123.118;2024-02-04T08:31:19;6.50;99.90
12843;DHT22;35724;49.324;-123.118;2024-02-04T08:41:26;6.60;99.90
12843;DHT22;35724;49.324;-123.118;2024-02-04T08:51:35;6.80;99.90
12843;DHT22;35724;49.324;-123.118;2024-02-04T09:01:42;6.70;99.90
12843;DHT22;35724;49.324;-123.118;2024-02-04T09:11:50;6.60;99.90
12843;DHT22;35724;49.324;-123.118;2024-02-04T09:21:58;6.60;99.90
12843;DHT22;35724;49.324;-123.118;2024-02-04T09:32:08;6.70;99.90
12843;DHT22;35724;49.324;-123.118;2024-02-04T09:42:20;6.70;99.90
12843;DHT22;35724;49.324;-123.118;2024-02-04T09:52:30;6.70;99.90
12843;DHT22;35724;49.324;-123.118;2024-02-04T10:12:49;6.80;99.90
12843;DHT22;35724;49.324;-123.118;2024-02-04T10:22:57;6.70;99.90
12843;DHT22;35724;49.324;-123.118;2024-02-04T10:33:06;6.20;99.90
12843;DHT22;35724;49.324;-123.118;2024-02-04T10:43:14;5.80;99.90
12843;DHT22;35724;49.324;-123.118;2024-02-04T10:53:24;5.70;99.90
12843;DHT22;35724;49.324;-123.118;2024-02-04T11:03:32;5.40;99.90
12843;DHT22;35724;49.324;-123.118;2024-02-04T11:13:43;5.10;99.90
12843;DHT22;35724;49.324;-123.118;2024-02-04T11:23:59;4.90;99.90
12843;DHT22;35724;49.324;-123.118;2024-02-04T11:34:13;4.90;99.90
12843;DHT22;35724;49.324;-123.118;2024-02-04T11:44:21;4.80;99.90
12843;DHT22;35724;49.324;-123.118;2024-02-04T11:54:31;4.60;99.90
12843;DHT22;35724;49.324;-123.118;2024-02-04T12:04:38;4.50;99.90
12843;DHT22;35724;49.324;-123.118;2024-02-04T12:14:47;4.50;99.90
12843;DHT22;35724;49.324;-123.118;2024-02-04T12:24:56;4.40;99.90
12843;DHT22;35724;49.324;-123.118;2024-02-04T12:35:06;4.50;99.90
12843;DHT22;35724;49.324;-123.118;2024-02-04T12:45:15;4.50;99.90
12843;DHT22;35724;49.324;-123.118;2024-02-04T12:55:26;4.50;99.90
12843;DHT22;35724;49.324;-123.118;2024-02-04T13:05:36;4.70;99.90
12843;DHT22;35724;49.324;-123.118;2024-02-04T13:15:45;4.70;99.90
12843;DHT22;35724;49.324;-123.118;2024-02-04T13:25:53;4.70;99.90
12843;DHT22;35724;49.324;-123.118;2024-02-04T13:36:03;4.80;99.90
12843;DHT22;35724;49.324;-123.118;2024-02-04T13:46:13;5.00;99.90
12843;DHT22;35724;49.324;-123.118;2024-02-04T13:56:24;5.00;99.90
12843;DHT22;35724;49.324;-123.118;2024-02-04T14:06:36;5.10;99.90
12843;DHT22;35724;49.324;-123.118;2024-02-04T14:16:52;5.20;99.90
12843;DHT22;35724;49.324;-123.118;2024-02-04T14:27:09;5.40;99.90
12843;DHT22;35724;49.324;-123.118;2024-02-04T14:37:24;5.40;99.90
12843;DHT22;35724;49.324;-123.118;2024-02-04T14:47:36;5.40;99.90
12843;DHT22;35724;49.324;-123.118;2024-02-04T14:57:46;5.40;99.90
12843;DHT22;35724;49.324;-123.118;2024-02-04T15:07:53;5.20;99.90
12843;DHT22;35724;49.324;-123.118;2024-02-04T15:18:03;5.00;99.90
12843;DHT22;35724;49.324;-123.118;2024-02-04T15:28:12;5.00;99.90
12843;DHT22;35724;49.324;-123.118;2024-02-04T15:38:21;4.90;99.90
12843;DHT22;35724;49.324;-123.118;2024-02-04T15:48:29;4.90;99.90
12843;DHT22;35724;49.324;-123.118;2024-02-04T15:58:39;4.90;99.90
12843;DHT22;35724;49.324;-123.118;2024-02-04T16:08:47;4.90;99.90
12843;DHT22;35724;49.324;-123.118;2024-02-04T16:18:57;4.80;99.90
12843;DHT22;35724;49.324;-123.118;2024-02-04T16:29:12;5.00;99.90
12843;DHT22;35724;49.324;-123.118;2024-02-04T16:39:21;5.10;99.90
12843;DHT22;35724;49.324;-123.118;2024-02-04T16:49:29;5.30;99.90
12843;DHT22;35724;49.324;-123.118;2024-02-04T16:59:53;5.70;99.90
12843;DHT22;35724;49.324;-123.118;2024-02-04T17:10:03;6.00;99.90
12843;DHT22;35724;49.324;-123.118;2024-02-04T17:20:15;6.40;99.90
12843;DHT22;35724;49.324;-123.118;2024-02-04T17:30:34;7.00;99.90
12843;DHT22;35724;49.324;-123.118;2024-02-04T17:41:05;7.70;99.90
12843;DHT22;35724;49.324;-123.118;2024-02-04T17:51:17;8.20;99.90
12843;DHT22;35724;49.324;-123.118;2024-02-04T18:01:37;8.20;99.90
12843;DHT22;35724;49.324;-123.118;2024-02-04T18:11:49;8.40;99.90
12843;DHT22;35724;49.324;-123.118;2024-02-04T18:22:05;8.90;99.90
12843;DHT22;35724;49.324;-123.118;2024-02-04T18:32:28;9.50;99.90
12843;DHT22;35724;49.324;-123.118;2024-02-04T18:42:43;10.40;99.90
12843;DHT22;35724;49.324;-123.118;2024-02-04T18:52:55;11.30;97.70
12843;DHT22;35724;49.324;-123.118;2024-02-04T19:03:12;12.10;92.20
12843;DHT22;35724;49.324;-123.118;2024-02-04T19:13:27;12.20;88.70
12843;DHT22;35724;49.324;-123.118;2024-02-04T19:23:40;11.10;92.20
12843;DHT22;35724;49.324;-123.118;2024-02-04T19:33:50;10.70;90.80
12843;DHT22;35724;49.324;-123.118;2024-02-04T19:43:58;11.30;91.60
12843;DHT22;35724;49.324;-123.118;2024-02-04T19:54:06;10.80;92.30
12843;DHT22;35724;49.324;-123.118;2024-02-04T20:04:14;11.40;91.80
12843;DHT22;35724;49.324;-123.118;2024-02-04T20:14:23;11.90;88.60
12843;DHT22;35724;49.324;-123.118;2024-02-04T20:24:31;12.10;90.20
12843;DHT22;35724;49.324;-123.118;2024-02-04T20:34:39;12.30;90.50
12843;DHT22;35724;49.324;-123.118;2024-02-04T20:44:48;12.20;89.90
12843;DHT22;35724;49.324;-123.118;2024-02-04T20:54:55;12.00;90.60
12843;DHT22;35724;49.324;-123.118;2024-02-04T21:05:04;12.00;89.30
12843;DHT22;35724;49.324;-123.118;2024-02-04T21:15:11;12.20;89.10
12843;DHT22;35724;49.324;-123.118;2024-02-04T21:25:23;12.10;87.90
12843;DHT22;35724;49.324;-123.118;2024-02-04T21:35:31;11.80;89.80
12843;DHT22;35724;49.324;-123.118;2024-02-04T21:45:42;11.60;91.30
12843;DHT22;35724;49.324;-123.118;2024-02-04T21:55:49;11.00;91.90
12843;DHT22;35724;49.324;-123.118;2024-02-04T22:06:00;10.50;94.40
12843;DHT22;35724;49.324;-123.118;2024-02-04T22:16:07;10.20;95.40
12843;DHT22;35724;49.324;-123.118;2024-02-04T22:26:16;10.30;97.40
12843;DHT22;35724;49.324;-123.118;2024-02-04T22:36:24;9.90;97.60
12843;DHT22;35724;49.324;-123.118;2024-02-04T22:46:37;9.50;98.70
12843;DHT22;35724;49.324;-123.118;2024-02-04T22:56:44;9.30;99.20
12843;DHT22;35724;49.324;-123.118;2024-02-04T23:06:53;9.30;99.20
12843;DHT22;35724;49.324;-123.118;2024-02-04T23:17:01;9.20;99.40
12843;DHT22;35724;49.324;-123.118;2024-02-04T23:27:10;9.00;99.90
12843;DHT22;35724;49.324;-123.118;2024-02-04T23:37:19;8.80;99.90
12843;DHT22;35724;49.324;-123.118;2024-02-04T23:47:28;8.80;99.90
12843;DHT22;35724;49.324;-123.118;2024-02-04T23:57:35;8.60;99.90
